sensor_id;sensor_type;location;lat;lon;timestamp;P1;P4;P2;P0;N10;N4;N25;N1;N05;TS
59652;SPS30;45954;49.768;8.636;2023-04-28T00:01:20;9.06;7.94;5.70;2.79;22.67;22.56;22.04;19.11;12.49;0.95
59652;SPS30;45954;49.768;8.636;2023-04-28T00:03:46;7.36;6.46;4.65;2.31;18.75;18.67;18.25;15.88;10.48;0.91
59652;SPS30;45954;49.768;8.636;2023-04-28T00:06:12;11.43;10.04;7.26;3.64;29.61;29.49;28.84;25.20;16.77;0.90
59652;SPS30;45954;49.768;8.636;2023-04-28T00:08:38;13.11;11.51;8.33;4.17;33.93;33.78;33.04;28.85;19.19;0.87
59652;SPS30;45954;49.768;8.636;2023-04-28T00:11:08;11.39;10.01;7.26;3.67;29.82;29.69;29.05;25.43;17.01;0.87
59652;SPS30;45954;49.768;8.636;2023-04-28T00:13:35;10.99;9.66;7.02;3.56;28.93;28.81;28.20;24.72;16.58;0.85
59652;SPS30;45954;49.768;8.636;2023-04-28T00:16:02;9.28;8.19;6.03;3.20;25.93;25.83;25.33;22.48;15.50;0.83
59652;SPS30;45954;49.768;8.636;2023-04-28T00:18:28;11.46;10.15;7.53;4.07;33.00;32.87;32.26;28.80;20.11;0.83
59652;SPS30;45954;49.768;8.636;2023-04-28T00:20:55;9.96;8.78;6.42;3.33;27.05;26.94;26.39;23.28;15.85;0.88
59652;SPS30;45954;49.768;8.636;2023-04-28T00:23:21;8.78;7.74;5.65;2.93;23.75;23.65;23.17;20.43;13.88;0.87
59652;SPS30;45954;49.768;8.636;2023-04-28T00:25:53;9.98;8.86;6.63;3.67;29.69;29.59;29.07;26.11;18.47;0.84
59652;SPS30;45954;49.768;8.636;2023-04-28T00:28:21;11.55;10.32;7.86;4.58;37.05;36.94;36.36;33.10;24.06;0.79
59652;SPS30;45954;49.768;8.636;2023-04-28T00:30:47;9.14;8.21;6.34;3.83;30.94;30.85;30.41;27.93;20.65;0.78
59652;SPS30;45954;49.768;8.636;2023-04-28T00:33:13;7.72;6.90;5.28;3.10;25.03;24.95;24.57;22.41;16.34;0.78
59652;SPS30;45954;49.768;8.636;2023-04-28T00:35:40;8.20;7.33;5.60;3.29;26.59;26.51;26.10;23.81;17.37;0.77
59652;SPS30;45954;49.768;8.636;2023-04-28T00:38:06;8.20;7.34;5.61;3.29;26.58;26.50;26.10;23.79;17.35;0.79
59652;SPS30;45954;49.768;8.636;2023-04-28T00:40:36;7.25;6.50;5.01;3.00;24.20;24.13;23.78;21.78;16.04;0.76
59652;SPS30;45954;49.768;8.636;2023-04-28T00:43:03;9.08;8.16;6.32;3.85;31.07;30.98;30.55;28.10;20.85;0.76
59652;SPS30;45954;49.768;8.636;2023-04-28T00:45:30;6.72;6.07;4.76;2.98;24.01;23.95;23.64;21.89;16.44;0.74
59652;SPS30;45954;49.768;8.636;2023-04-28T00:47:57;7.48;6.74;5.25;3.25;26.21;26.13;25.79;23.81;17.79;0.73
59652;SPS30;45954;49.768;8.636;2023-04-28T00:50:24;7.54;6.77;5.23;3.16;25.53;25.46;25.10;23.05;17.05;0.76
59652;SPS30;45954;49.768;8.636;2023-04-28T00:52:51;10.41;9.29;7.05;4.06;32.87;32.76;32.24;29.27;21.16;0.79
59652;SPS30;45954;49.768;8.636;2023-04-28T00:55:17;7.58;6.78;5.18;3.04;24.59;24.51;24.14;22.02;16.06;0.77
59652;SPS30;45954;49.768;8.636;2023-04-28T00:57:44;7.98;7.13;5.43;3.15;25.50;25.42;25.02;22.76;16.52;0.78
59652;SPS30;45954;49.768;8.636;2023-04-28T01:00:10;8.35;7.47;5.73;3.38;27.35;27.26;26.86;24.53;17.95;0.76
59652;SPS30;45954;49.768;8.636;2023-04-28T01:02:37;11.24;10.03;7.63;4.42;35.72;35.61;35.05;31.85;23.08;0.80
59652;SPS30;45954;49.768;8.636;2023-04-28T01:05:03;7.30;6.52;4.97;2.90;23.47;23.40;23.04;20.98;15.26;0.80
59652;SPS30;45954;49.768;8.636;2023-04-28T01:07:29;9.07;8.10;6.16;3.57;28.84;28.75;28.30;25.72;18.63;0.80
59652;SPS30;45954;49.768;8.636;2023-04-28T01:09:55;8.15;7.29;5.59;3.31;26.72;26.64;26.24;23.97;17.55;0.78
59652;SPS30;45954;49.768;8.636;2023-04-28T01:12:21;7.22;6.46;4.94;2.90;23.45;23.38;23.02;21.00;15.33;0.77
59652;SPS30;45954;49.768;8.636;2023-04-28T01:14:48;6.72;6.02;4.64;2.77;22.40;22.34;22.02;20.17;14.84;0.76
59652;SPS30;45954;49.768;8.636;2023-04-28T01:17:15;9.64;8.65;6.67;4.02;32.44;32.34;31.88;29.25;21.59;0.77
59652;SPS30;45954;49.768;8.636;2023-04-28T01:19:42;8.62;7.71;5.89;3.46;27.99;27.91;27.48;25.07;18.30;0.79
59652;SPS30;45954;49.768;8.636;2023-04-28T01:22:08;9.26;8.27;6.29;3.65;29.48;29.39;28.92;26.29;19.06;0.80
59652;SPS30;45954;49.768;8.636;2023-04-28T01:24:38;9.33;8.33;6.32;3.64;29.44;29.35;28.88;26.22;18.95;0.77
59652;SPS30;45954;49.768;8.636;2023-04-28T01:27:04;8.07;7.23;5.55;3.30;26.69;26.61;26.22;23.99;17.61;0.77
59652;SPS30;45954;49.768;8.636;2023-04-28T01:29:30;7.84;7.02;5.39;3.21;25.92;25.85;25.47;23.30;17.11;0.78
59652;SPS30;45954;49.768;8.636;2023-04-28T01:31:56;11.18;10.01;7.68;4.55;36.75;36.64;36.09;32.99;24.17;0.79
59652;SPS30;45954;49.768;8.636;2023-04-28T01:34:22;7.55;6.76;5.17;3.05;24.67;24.60;24.23;22.12;16.18;0.78
59652;SPS30;45954;49.768;8.636;2023-04-28T01:36:47;10.05;9.00;6.93;4.14;33.43;33.33;32.85;30.08;22.13;0.79
59652;SPS30;45954;49.768;8.636;2023-04-28T01:39:13;7.04;6.31;4.86;2.90;23.44;23.37;23.03;21.09;15.52;0.80
59652;SPS30;45954;49.768;8.636;2023-04-28T01:41:39;10.66;9.55;7.32;4.34;35.04;34.93;34.41;31.45;23.04;0.82
59652;SPS30;45954;49.768;8.636;2023-04-28T01:44:05;7.36;6.56;4.95;2.81;22.70;22.62;22.25;20.11;14.42;0.84
59652;SPS30;45954;49.768;8.636;2023-04-28T01:46:32;8.24;7.39;5.72;3.45;27.89;27.81;27.42;25.18;18.62;0.81
59652;SPS30;45954;49.768;8.636;2023-04-28T01:48:58;8.29;7.44;5.74;3.46;27.96;27.88;27.48;25.22;18.63;0.83
59652;SPS30;45954;49.768;8.636;2023-04-28T01:51:25;10.06;9.06;7.05;4.33;34.96;34.86;34.39;31.71;23.63;0.79
59652;SPS30;45954;49.768;8.636;2023-04-28T01:56:54;5.91;5.38;4.34;2.89;23.25;23.20;22.95;21.54;16.59;0.73
59652;SPS30;45954;49.768;8.636;2023-04-28T01:59:20;6.01;5.48;4.40;2.92;23.51;23.46;23.21;21.76;16.74;0.74
59652;SPS30;45954;49.768;8.636;2023-04-28T02:01:46;8.36;7.56;5.97;3.79;30.52;30.44;30.07;27.92;21.10;0.75
59652;SPS30;45954;49.768;8.636;2023-04-28T02:04:12;9.40;8.46;6.59;4.06;32.78;32.69;32.25;29.75;22.20;0.78
59652;SPS30;45954;49.768;8.636;2023-04-28T02:06:38;7.84;7.01;5.34;3.12;25.20;25.12;24.74;22.52;16.38;0.80
59652;SPS30;45954;49.768;8.636;2023-04-28T02:09:04;11.03;9.84;7.48;4.33;35.01;34.90;34.35;31.21;22.61;0.81
59652;SPS30;45954;49.768;8.636;2023-04-28T02:11:30;8.52;7.61;5.80;3.38;27.35;27.26;26.84;24.43;17.76;0.79
59652;SPS30;45954;49.768;8.636;2023-04-28T02:13:56;8.57;7.63;5.77;3.29;26.60;26.51;26.08;23.61;16.96;0.79
59652;SPS30;45954;49.768;8.636;2023-04-28T02:16:22;7.51;6.66;4.96;2.72;22.04;21.96;21.56;19.32;13.59;0.81
59652;SPS30;45954;49.768;8.636;2023-04-28T02:18:47;8.58;7.64;5.75;3.23;26.18;26.09;25.65;23.14;16.52;0.81
59652;SPS30;45954;49.768;8.636;2023-04-28T02:21:14;12.10;10.78;8.13;4.60;37.25;37.13;36.51;33.00;23.64;0.80
59652;SPS30;45954;49.768;8.636;2023-04-28T02:23:40;7.64;6.78;5.08;2.81;22.79;22.71;22.32;20.06;14.20;0.79
59652;SPS30;45954;49.768;8.636;2023-04-28T02:26:05;8.68;7.75;5.88;3.39;27.45;27.36;26.92;24.45;17.68;0.76
59652;SPS30;45954;49.768;8.636;2023-04-28T02:28:31;7.20;6.44;4.94;2.92;23.56;23.49;23.13;21.13;15.46;0.75
59652;SPS30;45954;49.768;8.636;2023-04-28T02:31:07;9.38;8.36;6.30;3.58;28.94;28.84;28.36;25.64;18.38;0.77
59652;SPS30;45954;49.768;8.636;2023-04-28T02:33:36;7.48;6.63;4.94;2.70;21.87;21.79;21.40;19.16;13.46;0.80
59652;SPS30;45954;49.768;8.636;2023-04-28T02:36:03;8.95;7.94;5.92;3.26;26.40;26.31;25.84;23.17;16.34;0.79
59652;SPS30;45954;49.768;8.636;2023-04-28T02:38:30;10.02;8.91;6.70;3.77;30.50;30.39;29.88;26.95;19.23;0.79
59652;SPS30;45954;49.768;8.636;2023-04-28T02:40:57;11.15;9.87;7.33;3.98;32.22;32.10;31.51;28.15;19.69;0.85
59652;SPS30;45954;49.768;8.636;2023-04-28T02:43:32;10.02;8.86;6.56;3.53;28.61;28.50;27.97;24.93;17.35;0.84
59652;SPS30;45954;49.768;8.636;2023-04-28T02:45:59;11.10;10.16;8.28;5.64;45.36;45.27;44.83;42.27;32.86;0.72
59652;SPS30;45954;49.768;8.636;2023-04-28T02:48:27;3.43;3.43;3.43;3.24;25.87;25.87;25.86;25.77;21.99;0.46
59652;SPS30;45954;49.768;8.636;2023-04-28T02:50:53;6.75;6.15;4.97;3.32;26.73;26.67;26.39;24.79;19.13;0.64
59652;SPS30;45954;49.768;8.636;2023-04-28T02:53:19;9.90;8.90;6.92;4.24;34.21;34.11;33.65;31.00;23.07;0.73
59652;SPS30;45954;49.768;8.636;2023-04-28T02:55:46;9.20;8.22;6.28;3.67;29.67;29.58;29.12;26.53;19.32;0.77
59652;SPS30;45954;49.768;8.636;2023-04-28T02:58:12;7.10;6.31;4.73;2.63;21.28;21.21;20.84;18.75;13.30;0.83
59652;SPS30;45954;49.768;8.636;2023-04-28T03:00:38;9.47;8.38;6.20;3.33;27.02;26.92;26.41;23.54;16.37;0.85
59652;SPS30;45954;49.768;8.636;2023-04-28T03:03:04;8.85;7.84;5.84;3.19;25.82;25.72;25.25;22.60;15.86;0.84
59652;SPS30;45954;49.768;8.636;2023-04-28T03:05:29;8.05;7.15;5.35;2.97;24.05;23.96;23.55;21.17;15.00;0.83
59652;SPS30;45954;49.768;8.636;2023-04-28T03:07:55;8.11;7.23;5.48;3.14;25.39;25.31;24.90;22.57;16.27;0.78
59652;SPS30;45954;49.768;8.636;2023-04-28T03:10:21;11.07;10.68;9.89;8.43;67.44;67.39;67.19;65.95;54.93;0.43
59652;SPS30;45954;49.768;8.636;2023-04-28T03:12:47;8.51;8.51;8.51;8.04;64.23;64.22;64.20;63.98;54.60;0.32
59652;SPS30;45954;49.768;8.636;2023-04-28T03:15:13;3.53;3.53;3.53;3.34;26.68;26.68;26.67;26.58;22.68;0.38
59652;SPS30;45954;49.768;8.636;2023-04-28T03:17:39;3.99;3.99;3.99;3.77;30.09;30.09;30.08;29.98;25.58;0.43
59652;SPS30;45954;49.768;8.636;2023-04-28T03:20:06;4.94;4.85;4.68;4.23;33.80;33.79;33.74;33.41;28.22;0.52
59652;SPS30;45954;49.768;8.636;2023-04-28T03:22:34;9.95;9.61;8.91;7.62;61.01;60.96;60.79;59.70;49.76;0.49
59652;SPS30;45954;49.768;8.636;2023-04-28T03:25:00;6.58;6.58;6.58;6.23;49.72;49.71;49.70;49.53;42.26;0.33
59652;SPS30;45954;49.768;8.636;2023-04-28T03:27:26;4.08;4.08;4.08;3.86;30.83;30.83;30.82;30.71;26.21;0.44
59652;SPS30;45954;49.768;8.636;2023-04-28T03:29:52;4.41;4.13;3.56;2.72;21.81;21.78;21.65;20.86;16.84;0.57
59652;SPS30;45954;49.768;8.636;2023-04-28T03:32:18;6.51;5.93;4.78;3.18;25.57;25.51;25.24;23.68;18.24;0.69
59652;SPS30;45954;49.768;8.636;2023-04-28T03:34:44;8.69;7.89;6.28;4.08;32.85;32.77;32.40;30.23;23.06;0.73
59652;SPS30;45954;49.768;8.636;2023-04-28T03:37:10;7.67;6.96;5.55;3.61;29.12;29.05;28.72;26.82;20.48;0.73
59652;SPS30;45954;49.768;8.636;2023-04-28T03:39:36;9.51;8.64;6.92;4.54;36.58;36.50;36.09;33.77;25.88;0.72
59652;SPS30;45954;49.768;8.636;2023-04-28T03:42:02;7.52;6.74;5.17;3.07;24.79;24.72;24.35;22.26;16.33;0.80
59652;SPS30;45954;49.768;8.636;2023-04-28T03:44:28;7.54;6.77;5.25;3.19;25.72;25.65;25.29;23.25;17.24;0.78
59652;SPS30;45954;49.768;8.636;2023-04-28T03:46:54;9.04;8.11;6.24;3.73;30.15;30.07;29.63;27.14;19.98;0.79
59652;SPS30;45954;49.768;8.636;2023-04-28T03:49:19;7.44;6.64;5.05;2.92;23.61;23.53;23.16;21.04;15.23;0.80
59652;SPS30;45954;49.768;8.636;2023-04-28T03:51:45;12.90;11.50;8.70;4.98;40.27;40.14;39.49;35.78;25.76;0.80
59652;SPS30;45954;49.768;8.636;2023-04-28T03:54:12;9.24;8.19;6.09;3.32;26.90;26.80;26.31;23.54;16.51;0.81
59652;SPS30;45954;49.768;8.636;2023-04-28T03:56:37;9.65;8.54;6.34;3.43;27.78;27.68;27.16;24.25;16.93;0.84
59652;SPS30;45954;49.768;8.636;2023-04-28T03:59:03;10.58;9.40;7.05;3.93;31.83;31.72;31.17;28.06;19.93;0.85
59652;SPS30;45954;49.768;8.636;2023-04-28T04:01:29;10.50;9.37;7.11;4.10;33.19;33.08;32.55;29.56;21.37;0.84
59652;SPS30;45954;49.768;8.636;2023-04-28T04:03:55;7.56;6.73;5.07;2.86;23.17;23.09;22.71;20.51;14.67;0.83
59652;SPS30;45954;49.768;8.636;2023-04-28T04:06:21;12.27;11.50;9.96;7.64;61.26;61.18;60.82;58.65;47.43;0.67
59652;SPS30;45954;49.768;8.636;2023-04-28T04:08:47;4.64;4.64;4.64;4.38;35.01;35.00;34.99;34.87;29.76;0.37
59652;SPS30;45954;49.768;8.636;2023-04-28T04:11:13;4.41;4.24;3.90;3.29;26.32;26.30;26.21;25.68;21.33;0.52
59652;SPS30;45954;49.768;8.636;2023-04-28T04:13:39;7.07;6.48;5.29;3.62;29.10;29.04;28.76;27.14;21.13;0.62
59652;SPS30;45954;49.768;8.636;2023-04-28T04:16:05;5.71;5.20;4.17;2.75;22.17;22.12;21.88;20.49;15.74;0.64
59652;SPS30;45954;49.768;8.636;2023-04-28T04:18:31;7.73;7.43;6.83;5.76;46.13;46.09;45.95;45.02;37.40;0.50
59652;SPS30;45954;49.768;8.636;2023-04-28T04:20:57;4.77;4.77;4.77;4.51;36.03;36.02;36.01;35.89;30.63;0.44
59652;SPS30;45954;49.768;8.636;2023-04-28T04:23:23;4.86;4.53;3.86;2.87;23.02;22.98;22.83;21.89;17.54;0.59
59652;SPS30;45954;49.768;8.636;2023-04-28T04:25:49;7.05;6.47;5.31;3.67;29.54;29.48;29.21;27.62;21.59;0.66
59652;SPS30;45954;49.768;8.636;2023-04-28T04:28:15;8.89;8.09;6.49;4.27;34.43;34.35;33.98;31.82;24.42;0.70
59652;SPS30;45954;49.768;8.636;2023-04-28T04:30:41;8.27;7.52;6.01;3.93;31.66;31.58;31.23;29.20;22.34;0.67
59652;SPS30;45954;49.768;8.636;2023-04-28T04:33:07;8.19;7.57;6.32;4.53;36.41;36.35;36.06;34.34;27.18;0.62
59652;SPS30;45954;49.768;8.636;2023-04-28T04:35:33;9.27;8.93;8.24;7.00;56.05;56.01;55.84;54.78;45.58;0.53
59652;SPS30;45954;49.768;8.636;2023-04-28T04:37:59;5.04;5.04;5.04;4.77;38.05;38.04;38.03;37.90;32.34;0.42
59652;SPS30;45954;49.768;8.636;2023-04-28T04:40:25;4.93;4.69;4.20;3.40;27.21;27.18;27.06;26.34;21.64;0.56
59652;SPS30;45954;49.768;8.636;2023-04-28T04:42:51;6.97;6.39;5.24;3.62;29.08;29.03;28.76;27.18;21.23;0.66
59652;SPS30;45954;49.768;8.636;2023-04-28T04:45:17;6.23;5.70;4.63;3.13;25.22;25.17;24.91;23.46;18.19;0.68
59652;SPS30;45954;49.768;8.636;2023-04-28T04:47:43;7.44;6.80;5.51;3.72;29.93;29.86;29.56;27.82;21.54;0.70
59652;SPS30;45954;49.768;8.636;2023-04-28T04:50:09;7.75;7.04;5.61;3.64;29.35;29.28;28.94;27.02;20.62;0.73
59652;SPS30;45954;49.768;8.636;2023-04-28T04:52:36;8.56;7.66;5.86;3.45;27.87;27.78;27.36;24.97;18.24;0.80
59652;SPS30;45954;49.768;8.636;2023-04-28T04:55:02;8.68;7.76;5.92;3.46;27.94;27.86;27.43;24.98;18.18;0.79
59652;SPS30;45954;49.768;8.636;2023-04-28T04:57:29;7.58;6.80;5.24;3.15;25.42;25.34;24.98;22.90;16.88;0.75
59652;SPS30;45954;49.768;8.636;2023-04-28T04:59:55;7.53;6.76;5.23;3.16;25.50;25.43;25.07;23.02;17.03;0.75
59652;SPS30;45954;49.768;8.636;2023-04-28T05:02:21;8.24;7.40;5.73;3.48;28.07;27.99;27.60;25.37;18.79;0.74
59652;SPS30;45954;49.768;8.636;2023-04-28T05:04:47;7.45;6.71;5.23;3.23;26.03;25.96;25.62;23.64;17.64;0.73
59652;SPS30;45954;49.768;8.636;2023-04-28T05:07:13;7.11;6.43;5.08;3.23;26.02;25.96;25.64;23.82;18.02;0.69
59652;SPS30;45954;49.768;8.636;2023-04-28T05:09:38;22.26;21.63;20.38;17.81;142.46;142.38;142.06;139.97;117.30;0.60
59652;SPS30;45954;49.768;8.636;2023-04-28T05:12:04;109.43;109.43;109.43;103.48;826.26;826.10;825.90;823.07;702.35;0.28
59652;SPS30;45954;49.768;8.636;2023-04-28T05:14:30;14.07;14.07;14.07;13.30;106.23;106.21;106.18;105.82;90.30;0.31
59652;SPS30;45954;49.768;8.636;2023-04-28T05:16:56;20.90;20.90;20.90;19.76;157.79;157.76;157.72;157.18;134.13;0.29
59652;SPS30;45954;49.768;8.636;2023-04-28T05:19:22;4.01;4.01;4.01;3.79;30.29;30.29;30.28;30.18;25.75;0.39
59652;SPS30;45954;49.768;8.636;2023-04-28T05:21:48;5.79;5.60;5.21;4.48;35.85;35.83;35.73;35.12;29.31;0.53
59652;SPS30;45954;49.768;8.636;2023-04-28T05:24:16;7.81;7.27;6.20;4.61;37.00;36.94;36.68;35.18;28.19;0.60
59652;SPS30;45954;49.768;8.636;2023-04-28T05:26:42;7.27;6.77;5.76;4.28;34.36;34.30;34.07;32.66;26.15;0.63
59652;SPS30;45954;49.768;8.636;2023-04-28T05:29:08;6.20;5.76;4.88;3.59;28.84;28.80;28.59;27.37;21.86;0.65
59652;SPS30;45954;49.768;8.636;2023-04-28T05:31:34;10.60;9.76;8.08;5.69;45.77;45.69;45.29;42.99;33.82;0.70
59652;SPS30;45954;49.768;8.636;2023-04-28T05:34:00;8.34;7.65;6.25;4.30;34.58;34.51;34.18;32.29;25.18;0.70
59652;SPS30;45954;49.768;8.636;2023-04-28T05:36:26;9.86;9.09;7.53;5.31;42.73;42.65;42.28;40.15;31.61;0.68
59652;SPS30;45954;49.768;8.636;2023-04-28T05:38:52;7.94;7.32;6.10;4.35;34.94;34.88;34.59;32.91;25.99;0.65
59652;SPS30;45954;49.768;8.636;2023-04-28T05:41:18;10.44;9.62;7.99;5.66;45.53;45.44;45.06;42.82;33.76;0.67
59652;SPS30;45954;49.768;8.636;2023-04-28T05:43:44;10.90;10.37;9.32;7.60;60.85;60.79;60.53;58.98;48.54;0.62
59652;SPS30;45954;49.768;8.636;2023-04-28T05:46:11;16.44;16.44;16.44;15.54;124.09;124.07;124.04;123.61;105.48;0.31
59652;SPS30;45954;49.768;8.636;2023-04-28T05:51:10;13.27;12.08;9.69;6.40;51.51;51.39;50.83;47.61;36.56;0.65
59652;SPS30;45954;49.768;8.636;2023-04-28T05:53:35;8.21;7.62;6.45;4.74;38.10;38.04;37.76;36.14;28.84;0.61
59652;SPS30;45954;49.768;8.636;2023-04-28T05:56:01;8.03;7.48;6.37;4.73;37.96;37.91;37.64;36.10;28.91;0.62
59652;SPS30;45954;49.768;8.636;2023-04-28T05:58:28;7.95;7.42;6.36;4.77;38.32;38.27;38.01;36.52;29.35;0.62
59652;SPS30;45954;49.768;8.636;2023-04-28T06:00:54;8.86;8.24;7.01;5.19;41.63;41.57;41.28;39.55;31.64;0.62
59652;SPS30;45954;49.768;8.636;2023-04-28T06:03:20;8.87;8.22;6.93;5.05;40.59;40.52;40.22;38.43;30.59;0.63
59652;SPS30;45954;49.768;8.636;2023-04-28T06:05:45;9.11;8.45;7.14;5.22;41.96;41.89;41.58;39.76;31.69;0.64
59652;SPS30;45954;49.768;8.636;2023-04-28T06:08:11;8.68;8.07;6.86;5.08;40.79;40.73;40.44;38.75;31.00;0.62
59652;SPS30;45954;49.768;8.636;2023-04-28T06:10:37;8.95;8.31;7.03;5.15;41.38;41.32;41.01;39.23;31.29;0.63
59652;SPS30;45954;49.768;8.636;2023-04-28T06:13:03;9.09;8.42;7.07;5.12;41.13;41.07;40.75;38.88;30.88;0.62
59652;SPS30;45954;49.768;8.636;2023-04-28T06:15:30;10.56;9.83;8.38;6.23;50.04;49.96;49.62;47.59;38.13;0.63
59652;SPS30;45954;49.768;8.636;2023-04-28T06:17:57;9.59;8.96;7.71;5.84;46.85;46.78;46.48;44.73;36.03;0.63
59652;SPS30;45954;49.768;8.636;2023-04-28T06:20:23;7.85;7.38;6.43;4.99;39.98;39.93;39.71;38.36;31.12;0.61
59652;SPS30;45954;49.768;8.636;2023-04-28T06:22:49;9.31;8.73;7.56;5.80;46.52;46.46;46.18;44.53;36.01;0.62
59652;SPS30;45954;49.768;8.636;2023-04-28T06:25:15;10.17;9.48;8.12;6.10;48.97;48.90;48.58;46.67;37.51;0.64
59652;SPS30;45954;49.768;8.636;2023-04-28T06:27:41;7.46;6.96;5.96;4.47;35.88;35.82;35.59;34.18;27.46;0.64
59652;SPS30;45954;49.768;8.636;2023-04-28T06:30:07;8.90;8.24;6.93;5.03;40.44;40.37;40.06;38.25;30.41;0.66
59652;SPS30;45954;49.768;8.636;2023-04-28T06:32:34;10.00;9.25;7.74;5.57;44.74;44.67;44.31;42.23;33.47;0.68
59652;SPS30;45954;49.768;8.636;2023-04-28T06:35:00;11.28;10.44;8.77;6.35;51.00;50.92;50.52;48.21;38.29;0.66
59652;SPS30;45954;49.768;8.636;2023-04-28T06:37:25;8.37;7.84;6.79;5.20;41.69;41.64;41.39;39.90;32.25;0.60
59652;SPS30;45954;49.768;8.636;2023-04-28T06:39:51;8.29;7.77;6.73;5.15;41.32;41.26;41.01;39.54;31.96;0.61
59652;SPS30;45954;49.768;8.636;2023-04-28T06:42:17;8.96;8.39;7.24;5.51;44.24;44.18;43.91;42.29;34.13;0.61
59652;SPS30;45954;49.768;8.636;2023-04-28T06:44:44;10.26;9.60;8.27;6.28;50.40;50.33;50.02;48.15;38.83;0.65
59652;SPS30;45954;49.768;8.636;2023-04-28T06:47:10;7.68;7.19;6.21;4.73;37.97;37.92;37.69;36.31;29.31;0.63
59652;SPS30;45954;49.768;8.636;2023-04-28T06:49:36;8.28;7.75;6.71;5.13;41.15;41.09;40.84;39.37;31.81;0.62
59652;SPS30;45954;49.768;8.636;2023-04-28T06:52:02;8.40;7.86;6.79;5.18;41.56;41.51;41.25;39.74;32.09;0.62
59652;SPS30;45954;49.768;8.636;2023-04-28T06:54:28;8.23;7.67;6.55;4.89;39.22;39.16;38.90;37.33;29.94;0.62
59652;SPS30;45954;49.768;8.636;2023-04-28T06:56:53;7.66;7.22;6.33;4.96;39.77;39.73;39.51;38.25;31.13;0.61
59652;SPS30;45954;49.768;8.636;2023-04-28T06:59:19;7.28;6.87;6.04;4.75;38.09;38.04;37.84;36.66;29.87;0.61
59652;SPS30;45954;49.768;8.636;2023-04-28T07:01:45;9.23;8.70;7.64;5.99;48.04;47.98;47.73;46.21;37.62;0.62
59652;SPS30;45954;49.768;8.636;2023-04-28T07:04:11;9.92;9.30;8.06;6.19;49.64;49.58;49.28;47.53;38.46;0.63
59652;SPS30;45954;49.768;8.636;2023-04-28T07:06:37;7.93;7.45;6.49;5.03;40.32;40.27;40.04;38.68;31.38;0.63
59652;SPS30;45954;49.768;8.636;2023-04-28T07:09:03;7.78;7.29;6.31;4.83;38.73;38.68;38.45;37.06;29.95;0.61
59652;SPS30;45954;49.768;8.636;2023-04-28T07:11:29;8.81;8.26;7.17;5.51;44.21;44.15;43.89;42.34;34.27;0.65
59652;SPS30;45954;49.768;8.636;2023-04-28T07:13:57;10.15;9.50;8.22;6.28;50.38;50.31;50.01;48.19;38.94;0.65
59652;SPS30;45954;49.768;8.636;2023-04-28T07:16:24;7.55;7.08;6.16;4.75;38.07;38.03;37.80;36.49;29.56;0.64
59652;SPS30;45954;49.768;8.636;2023-04-28T07:18:50;8.28;7.80;6.85;5.36;43.00;42.95;42.72;41.35;33.65;0.59
59652;SPS30;45954;49.768;8.636;2023-04-28T07:21:16;8.23;7.74;6.77;5.28;42.31;42.26;42.02;40.64;33.02;0.59
59652;SPS30;45954;49.768;8.636;2023-04-28T07:23:41;8.91;8.32;7.14;5.39;43.22;43.16;42.88;41.23;33.17;0.61
59652;SPS30;45954;49.768;8.636;2023-04-28T07:26:07;8.90;8.33;7.18;5.46;43.78;43.72;43.44;41.83;33.73;0.60
59652;SPS30;45954;49.768;8.636;2023-04-28T07:28:33;8.02;7.52;6.52;5.01;40.22;40.16;39.93;38.52;31.17;0.58
59652;SPS30;45954;49.768;8.636;2023-04-28T07:31:00;8.88;8.29;7.11;5.36;42.99;42.93;42.65;41.00;32.98;0.60
59652;SPS30;45954;49.768;8.636;2023-04-28T07:33:26;8.77;8.15;6.90;5.08;40.82;40.75;40.46;38.73;30.93;0.60
59652;SPS30;45954;49.768;8.636;2023-04-28T07:35:52;11.05;10.28;8.76;6.51;52.23;52.15;51.78;49.65;39.76;0.61
59652;SPS30;45954;49.768;8.636;2023-04-28T07:38:18;8.78;8.17;6.94;5.13;41.21;41.14;40.85;39.14;31.31;0.63
59652;SPS30;45954;49.768;8.636;2023-04-28T07:40:44;8.11;7.54;6.40;4.73;37.95;37.89;37.62;36.03;28.80;0.61
59652;SPS30;45954;49.768;8.636;2023-04-28T07:43:11;9.28;8.54;7.06;4.95;39.79;39.72;39.37;37.34;29.33;0.64
59652;SPS30;45954;49.768;8.636;2023-04-28T07:45:40;9.76;9.04;7.61;5.53;44.40;44.33;43.99;42.01;33.40;0.63
59652;SPS30;45954;49.768;8.636;2023-04-28T07:48:09;9.00;8.36;7.09;5.22;41.93;41.87;41.56;39.79;31.78;0.64
59652;SPS30;45954;49.768;8.636;2023-04-28T07:50:35;8.69;8.07;6.81;4.99;40.06;40.00;39.70;37.96;30.26;0.64
59652;SPS30;45954;49.768;8.636;2023-04-28T07:53:01;8.16;7.50;6.17;4.30;34.58;34.51;34.20;32.39;25.38;0.65
59652;SPS30;45954;49.768;8.636;2023-04-28T07:55:27;6.64;6.07;4.93;3.35;26.92;26.87;26.60;25.05;19.44;0.67
59652;SPS30;45954;49.768;8.636;2023-04-28T07:57:54;9.56;8.75;7.15;4.89;39.35;39.27;38.89;36.70;28.58;0.67
59652;SPS30;45954;49.768;8.636;2023-04-28T08:00:21;9.34;8.54;6.95;4.71;37.91;37.83;37.46;35.28;27.38;0.66
59652;SPS30;45954;49.768;8.636;2023-04-28T08:02:46;8.84;7.99;6.29;3.98;32.12;32.04;31.64;29.37;22.17;0.68
59652;SPS30;45954;49.768;8.636;2023-04-28T08:05:12;7.02;6.34;4.98;3.14;25.31;25.25;24.93;23.11;17.41;0.69
59652;SPS30;45954;49.768;8.636;2023-04-28T08:07:38;8.00;7.23;5.70;3.61;29.11;29.03;28.68;26.62;20.11;0.69
59652;SPS30;45954;49.768;8.636;2023-04-28T08:10:04;8.15;7.40;5.91;3.85;31.03;30.96;30.61;28.59;21.85;0.67
59652;SPS30;45954;49.768;8.636;2023-04-28T08:12:31;11.34;10.34;8.35;5.58;44.90;44.80;44.34;41.64;32.13;0.65
59652;SPS30;45954;49.768;8.636;2023-04-28T08:14:56;9.65;8.88;7.34;5.16;41.46;41.39;41.02;38.92;30.59;0.62
59652;SPS30;45954;49.768;8.636;2023-04-28T08:17:22;8.31;7.64;6.31;4.41;35.50;35.43;35.12;33.29;26.14;0.63
59652;SPS30;45954;49.768;8.636;2023-04-28T08:19:48;8.40;7.77;6.50;4.68;37.63;37.57;37.27;35.52;28.16;0.63
59652;SPS30;45954;49.768;8.636;2023-04-28T08:22:14;11.28;10.48;8.88;6.54;52.51;52.43;52.05;49.83;39.80;0.63
59652;SPS30;45954;49.768;8.636;2023-04-28T08:24:40;8.52;7.91;6.70;4.94;39.64;39.57;39.29;37.61;30.03;0.63
59652;SPS30;45954;49.768;8.636;2023-04-28T08:27:06;9.52;8.90;7.65;5.78;46.41;46.34;46.05;44.29;35.67;0.60
59652;SPS30;45954;49.768;8.636;2023-04-28T08:29:32;8.89;8.35;7.27;5.61;45.02;44.96;44.70;43.17;34.99;0.59
59652;SPS30;45954;49.768;8.636;2023-04-28T08:31:58;8.31;7.73;6.58;4.89;39.24;39.18;38.91;37.30;29.87;0.60
59652;SPS30;45954;49.768;8.636;2023-04-28T08:34:26;9.80;9.09;7.68;5.62;45.15;45.08;44.74;42.78;34.10;0.59
59652;SPS30;45954;49.768;8.636;2023-04-28T08:36:52;8.54;7.90;6.63;4.78;38.43;38.37;38.07;36.31;28.81;0.60
59652;SPS30;45954;49.768;8.636;2023-04-28T08:39:18;7.51;6.98;5.92;4.36;35.04;34.99;34.74;33.26;26.57;0.59
59652;SPS30;45954;49.768;8.636;2023-04-28T08:41:46;10.86;10.10;8.58;6.34;50.91;50.83;50.47;48.35;38.66;0.58
59652;SPS30;45954;49.768;8.636;2023-04-28T08:44:12;9.85;9.11;7.65;5.53;44.41;44.34;43.99;41.97;33.31;0.60
59652;SPS30;45954;49.768;8.636;2023-04-28T08:46:39;8.60;7.93;6.59;4.68;37.60;37.53;37.22;35.38;27.91;0.60
59652;SPS30;45954;49.768;8.636;2023-04-28T08:49:06;10.84;10.03;8.42;6.10;48.97;48.89;48.50;46.28;36.75;0.61
59652;SPS30;45954;49.768;8.636;2023-04-28T08:51:46;10.33;9.61;8.19;6.08;48.83;48.75;48.41;46.42;37.18;0.60
59652;SPS30;45954;49.768;8.636;2023-04-28T08:54:20;180.21;179.88;179.22;168.71;1347.19;1346.90;1346.42;1340.98;1143.17;0.36
59652;SPS30;45954;49.768;8.636;2023-04-28T08:56:47;95.92;95.92;95.92;90.71;724.24;724.10;723.92;721.45;615.63;0.30
59652;SPS30;45954;49.768;8.636;2023-04-28T08:59:14;112.69;112.69;112.69;106.57;850.85;850.69;850.48;847.57;723.26;0.37
59652;SPS30;45954;49.768;8.636;2023-04-28T09:01:42;351.85;351.85;351.85;332.73;2656.61;2656.09;2655.45;2646.37;2258.22;0.29
59652;SPS30;45954;49.768;8.636;2023-04-28T09:04:08;378.58;378.58;378.58;358.01;2858.46;2857.91;2857.21;2847.44;2429.81;0.28
59652;SPS30;45954;49.768;8.636;2023-04-28T09:06:35;182.54;182.54;182.54;172.62;1378.26;1377.99;1377.66;1372.95;1171.58;0.30
59652;SPS30;45954;49.768;8.636;2023-04-28T09:11:54;7.11;7.11;7.11;6.72;53.68;53.67;53.66;53.47;45.63;0.38